Time;durP1;ratioP1;P1;durP2;ratioP2;P2;SDS_P1;SDS_P2;PMS_P1;PMS_P2;Temp;Humidity;BMP_temperature;BMP_pressure;BME280_temperature;BME280_humidity;BME280_pressure;Samples;Min_cycle;Max_cycle;Signal;HPM_P1;HPM_P2
2023/02/13 00:00:17;;;;;;;1999.90;999.90;;;2.00;99.90;;;;;;5029470;28;20453;-67
2023/02/13 00:02:44;;;;;;;1999.90;999.90;;;1.90;99.90;;;;;;5027691;28;20459;-68
2023/02/13 00:05:11;;;;;;;1999.90;999.90;;;1.90;99.90;;;;;;5029439;28;20441;-68
2023/02/13 00:07:39;;;;;;;1999.90;999.90;;;1.80;99.90;;;;;;5029245;28;20457;-70
2023/02/13 00:10:08;;;;;;;1999.90;999.90;;;1.80;99.90;;;;;;5028878;28;20453;-69
2023/02/13 00:12:35;;;;;;;1999.90;999.90;;;1.90;99.90;;;;;;5031145;28;20643;-68
2023/02/13 00:15:02;;;;;;;1999.90;999.90;;;1.80;99.90;;;;;;5048291;28;20451;-68
2023/02/13 00:17:29;;;;;;;1999.90;999.90;;;1.70;99.90;;;;;;5048516;28;20452;-68
2023/02/13 00:19:56;;;;;;;1999.90;999.90;;;1.70;99.90;;;;;;5048411;28;20458;-68
2023/02/13 00:22:23;;;;;;;1999.90;999.90;;;1.60;99.90;;;;;;5047286;28;20471;-68
2023/02/13 00:24:51;;;;;;;1999.90;999.90;;;1.50;99.90;;;;;;5048363;28;20475;-69
2023/02/13 00:27:18;;;;;;;1999.90;999.90;;;1.40;99.90;;;;;;5050122;28;20454;-70
2023/02/13 00:29:44;;;;;;;1999.90;999.90;;;1.30;99.90;;;;;;5050709;28;20486;-68
2023/02/13 00:32:11;;;;;;;1999.90;999.90;;;1.40;99.90;;;;;;5051898;28;20475;-67
2023/02/13 00:34:38;;;;;;;1999.90;999.90;;;1.50;99.90;;;;;;5051290;28;20462;-69
2023/02/13 00:37:05;;;;;;;1999.90;999.90;;;1.40;99.90;;;;;;5052213;28;20447;-70
2023/02/13 00:39:31;;;;;;;1999.90;999.90;;;1.20;99.90;;;;;;5052293;28;20440;-68
2023/02/13 00:42:00;;;;;;;1999.90;999.90;;;1.10;99.90;;;;;;5052226;28;20472;-69
2023/02/13 00:44:26;;;;;;;1999.90;999.90;;;1.20;99.90;;;;;;5051085;28;20451;-69
2023/02/13 00:46:53;;;;;;;1999.90;999.90;;;1.10;99.90;;;;;;5038301;28;20991;-68
2023/02/13 00:49:20;;;;;;;1999.90;999.90;;;1.00;99.90;;;;;;5032021;28;20483;-66
2023/02/13 00:51:47;;;;;;;1999.90;999.90;;;0.90;99.90;;;;;;5031924;28;20460;-68
2023/02/13 00:54:13;;;;;;;1999.90;999.90;;;0.80;99.90;;;;;;5031163;28;20448;-65
2023/02/13 00:56:40;;;;;;;1999.90;999.90;;;0.80;99.90;;;;;;5031760;28;20448;-66
2023/02/13 00:59:08;;;;;;;1999.90;999.90;;;0.80;99.90;;;;;;5031994;28;20834;-68
2023/02/13 01:01:35;;;;;;;1999.90;999.90;;;0.70;99.90;;;;;;5031993;28;20477;-67
2023/02/13 01:04:02;;;;;;;1999.90;999.90;;;0.70;99.90;;;;;;5030278;28;20543;-67
2023/02/13 01:06:29;;;;;;;1999.90;999.90;;;0.70;99.90;;;;;;5031983;28;20460;-67
2023/02/13 01:08:56;;;;;;;1999.90;999.90;;;0.70;99.90;;;;;;5032012;28;20473;-67
2023/02/13 01:11:23;;;;;;;1999.90;999.90;;;0.60;99.90;;;;;;5031992;28;20482;-67
2023/02/13 01:13:49;;;;;;;1999.90;999.90;;;0.70;99.90;;;;;;5030667;28;20479;-67
2023/02/13 01:16:17;;;;;;;1999.90;999.90;;;0.70;99.90;;;;;;5031576;28;20444;-65
2023/02/13 01:18:44;;;;;;;1999.90;999.90;;;0.80;99.90;;;;;;5031670;28;20448;-67
2023/02/13 01:21:17;;;;;;;1999.90;999.90;;;0.80;99.90;;;;;;5031258;28;20465;-67
2023/02/13 01:23:44;;;;;;;1999.90;999.90;;;0.80;99.90;;;;;;5046047;28;20456;-68
2023/02/13 01:26:19;;;;;;;1999.90;999.90;;;0.90;99.90;;;;;;5031981;28;20453;-66
2023/02/13 01:28:46;;;;;;;1999.90;999.90;;;0.90;99.90;;;;;;5031511;28;20989;-68
2023/02/13 01:31:13;;;;;;;1999.90;999.90;;;0.80;99.90;;;;;;5031559;28;20483;-66
2023/02/13 01:33:41;;;;;;;1999.90;999.90;;;0.80;99.90;;;;;;5030346;28;20449;-66
2023/02/13 01:36:10;;;;;;;1999.90;999.90;;;0.70;99.90;;;;;;5031074;28;20457;-67
2023/02/13 01:38:37;;;;;;;1999.90;999.90;;;0.60;99.90;;;;;;5030553;28;20828;-67
2023/02/13 01:41:04;;;;;;;1999.90;999.90;;;0.50;99.90;;;;;;5031361;28;20488;-66
2023/02/13 01:43:49;;;;;;;1999.90;999.90;;;0.50;99.90;;;;;;5029729;28;20459;-67
2023/02/13 01:46:20;;;;;;;1999.90;999.90;;;0.40;99.90;;;;;;5031773;28;20441;-64
2023/02/13 01:48:49;;;;;;;1999.90;999.90;;;0.40;99.90;;;;;;5032834;28;20880;-68
2023/02/13 01:51:20;;;;;;;1999.90;999.90;;;0.40;99.90;;;;;;5030790;28;20465;-64
2023/02/13 01:53:52;;;;;;;1999.90;999.90;;;0.40;99.90;;;;;;5029469;28;20445;-67
2023/02/13 01:56:24;;;;;;;1999.90;999.90;;;0.40;99.90;;;;;;5030712;28;20726;-67
2023/02/13 01:58:55;;;;;;;1999.90;999.90;;;0.20;99.90;;;;;;5030484;28;20441;-67
2023/02/13 02:01:24;;;;;;;1999.90;999.90;;;0.30;99.90;;;;;;5030937;28;20473;-66
2023/02/13 02:03:56;;;;;;;1999.90;999.90;;;0.20;99.90;;;;;;5029487;28;20451;-67
2023/02/13 02:06:27;;;;;;;1999.90;999.90;;;0.10;99.90;;;;;;5030667;28;20471;-67
2023/02/13 02:08:57;;;;;;;1999.90;999.90;;;0.10;99.90;;;;;;5030465;28;20868;-67
2023/02/13 02:11:30;;;;;;;1999.90;999.90;;;0.10;99.90;;;;;;5030467;28;20460;-67
2023/02/13 02:13:58;;;;;;;1999.90;999.90;;;0.10;99.90;;;;;;5029065;28;20978;-67
2023/02/13 02:16:26;;;;;;;1999.90;999.90;;;0.10;99.90;;;;;;5030349;28;20460;-67
2023/02/13 02:18:55;;;;;;;1999.90;999.90;;;0.10;99.90;;;;;;5030644;28;20939;-66
2023/02/13 02:21:54;;;;;;;1999.90;999.90;;;0.10;99.90;;;;;;5030088;28;21009;-67
2023/02/13 02:24:55;;;;;;;1999.90;999.90;;;0.00;99.90;;;;;;5029590;28;20449;-67
2023/02/13 02:27:54;;;;;;;1999.90;999.90;;;0.00;99.90;;;;;;5030342;28;20444;-67
2023/02/13 02:30:54;;;;;;;1999.90;999.90;;;0.00;99.90;;;;;;5030538;28;20504;-67
2023/02/13 02:33:35;;;;;;;1999.90;999.90;;;0.00;99.90;;;;;;5030872;28;20447;-68
2023/02/13 02:36:16;;;;;;;1999.90;999.90;;;0.00;99.90;;;;;;5030804;28;20449;-67
2023/02/13 02:38:58;;;;;;;1999.90;999.90;;;-0.10;99.90;;;;;;5030289;28;20463;-69
2023/02/13 02:41:41;;;;;;;1999.90;999.90;;;0.00;99.90;;;;;;5030697;28;20943;-67
2023/02/13 02:44:17;;;;;;;1999.90;999.90;;;0.00;99.90;;;;;;5029104;28;20958;-68
2023/02/13 02:49:58;;;;;;;1999.90;999.90;;;0.00;99.90;;;;;;5029074;28;20531;-67
2023/02/13 02:52:34;;;;;;;1999.90;999.90;;;0.10;99.90;;;;;;5028645;28;20966;-67
2023/02/13 02:55:08;;;;;;;1999.90;999.90;;;0.10;99.90;;;;;;5029721;28;20448;-69
2023/02/13 03:06:10;;;;;;;1999.90;999.90;;;0.10;99.90;;;;;;5029835;28;20432;-69
2023/02/13 03:14:09;;;;;;;1999.90;999.90;;;0.10;99.90;;;;;;5028191;28;20938;-67
2023/02/13 03:22:29;;;;;;;1999.90;999.90;;;-0.10;99.90;;;;;;5029418;28;20460;-68
2023/02/13 03:25:04;;;;;;;1999.90;999.90;;;-0.10;99.90;;;;;;5029658;28;20455;-68
2023/02/13 03:30:31;;;;;;;1999.90;999.90;;;-0.10;99.90;;;;;;5029357;28;20538;-66
2023/02/13 03:33:10;;;;;;;1999.90;999.90;;;-0.10;99.90;;;;;;5034545;28;21283;-68
2023/02/13 03:38:42;;;;;;;1999.90;999.90;;;-0.20;99.90;;;;;;5049221;28;20478;-67
2023/02/13 03:41:18;;;;;;;1999.90;999.90;;;-0.20;99.90;;;;;;5049276;28;20464;-68
2023/02/13 03:43:53;;;;;;;1999.90;999.90;;;-0.20;99.90;;;;;;5047996;28;20470;-69
2023/02/13 03:46:21;;;;;;;1999.90;999.90;;;-0.30;99.90;;;;;;5049205;28;20471;-69
2023/02/13 03:51:37;;;;;;;1999.90;999.90;;;-0.20;99.90;;;;;;5026205;28;20460;-69
2023/02/13 03:54:12;;;;;;;1999.90;999.90;;;-0.30;99.90;;;;;;5027811;28;20973;-69
2023/02/13 03:59:31;;;;;;;1999.90;999.90;;;-0.20;99.90;;;;;;5028769;28;20820;-68
2023/02/13 04:02:03;;;;;;;1999.90;999.90;;;-0.20;99.90;;;;;;5028495;28;20497;-68
2023/02/13 04:04:38;;;;;;;1999.90;999.90;;;-0.30;99.90;;;;;;5028160;28;20460;-68
2023/02/13 04:07:09;;;;;;;1999.90;999.90;;;-0.30;99.90;;;;;;5028817;28;20449;-69
2023/02/13 04:09:40;;;;;;;1999.90;999.90;;;-0.40;99.90;;;;;;5028656;28;20476;-67
2023/02/13 04:12:14;;;;;;;1999.90;999.90;;;-0.40;99.90;;;;;;5028453;28;20465;-68
2023/02/13 04:14:48;;;;;;;1999.90;999.90;;;-0.50;99.90;;;;;;5045731;28;20452;-69
2023/02/13 04:17:22;;;;;;;1999.90;999.90;;;-0.60;99.90;;;;;;5028754;28;20954;-69
2023/02/13 04:19:49;;;;;;;1999.90;999.90;;;-0.60;99.90;;;;;;5028540;28;20866;-68
2023/02/13 04:22:16;;;;;;;1999.90;999.90;;;-0.50;99.90;;;;;;5028367;28;20487;-68
2023/02/13 04:24:45;;;;;;;1999.90;999.90;;;-0.50;99.90;;;;;;5028006;28;20456;-69
2023/02/13 04:27:13;;;;;;;1999.90;999.90;;;-0.60;99.90;;;;;;5028468;28;20455;-67
2023/02/13 04:29:41;;;;;;;1999.90;999.90;;;-0.60;99.90;;;;;;5034965;28;20488;-68
2023/02/13 04:32:09;;;;;;;1999.90;999.90;;;-0.70;99.90;;;;;;5047889;28;20467;-67
2023/02/13 04:34:36;;;;;;;1999.90;999.90;;;-0.50;99.90;;;;;;5047526;28;20463;-68
2023/02/13 04:37:04;;;;;;;1999.90;999.90;;;-0.50;99.90;;;;;;5048551;28;20519;-69
2023/02/13 04:39:31;;;;;;;1999.90;999.90;;;-0.50;99.90;;;;;;5048531;28;21037;-68
2023/02/13 04:41:59;;;;;;;1999.90;999.90;;;-0.60;99.90;;;;;;5048440;28;20467;-69
2023/02/13 04:44:26;;;;;;;1999.90;999.90;;;-0.60;99.90;;;;;;5047161;28;20452;-68
2023/02/13 04:46:53;;;;;;;1999.90;999.90;;;-0.60;99.90;;;;;;5032843;28;20972;-68
2023/02/13 04:49:19;;;;;;;1999.90;999.90;;;-0.60;99.90;;;;;;5028235;28;20484;-69
2023/02/13 04:51:46;;;;;;;1999.90;999.90;;;-0.60;99.90;;;;;;5028309;28;20465;-67
2023/02/13 04:54:13;;;;;;;1999.90;999.90;;;-0.60;99.90;;;;;;5027261;28;20962;-68
2023/02/13 04:56:40;;;;;;;1999.90;999.90;;;-0.60;99.90;;;;;;5028281;28;20457;-69
2023/02/13 04:59:08;;;;;;;1999.90;999.90;;;-0.60;99.90;;;;;;5028286;28;20449;-67
2023/02/13 05:01:34;;;;;;;1999.90;999.90;;;-0.60;99.90;;;;;;5028596;28;20473;-68
2023/02/13 05:04:01;;;;;;;1999.90;999.90;;;-0.60;99.90;;;;;;5027513;28;20449;-68
2023/02/13 05:06:28;;;;;;;1999.90;999.90;;;-0.70;99.90;;;;;;5028460;28;20453;-69
2023/02/13 05:08:55;;;;;;;1999.90;999.90;;;-0.60;99.90;;;;;;5028420;28;20453;-68
2023/02/13 05:11:22;;;;;;;1999.90;999.90;;;-0.60;99.90;;;;;;5028358;28;20476;-67
2023/02/13 05:13:48;;;;;;;1999.90;999.90;;;-0.60;99.90;;;;;;5029600;28;20931;-67
2023/02/13 05:16:17;;;;;;;1999.90;999.90;;;-0.70;99.90;;;;;;5031729;28;20459;-68
2023/02/13 05:18:43;;;;;;;1999.90;999.90;;;-0.70;99.90;;;;;;5034866;28;20958;-68
2023/02/13 05:24:00;;;;;;;1999.90;999.90;;;-0.90;99.90;;;;;;5009891;28;20437;-70
2023/02/13 05:26:27;;;;;;;1999.90;999.90;;;-0.90;99.90;;;;;;5050571;28;20447;-70
2023/02/13 05:31:39;;;;;;;1999.90;999.90;;;-1.00;99.90;;;;;;5050932;28;20446;-68
2023/02/13 05:34:06;;;;;;;1999.90;999.90;;;-0.90;99.90;;;;;;5049962;28;20474;-69
2023/02/13 05:36:33;;;;;;;1999.90;999.90;;;-1.00;99.90;;;;;;5038837;28;20456;-70
2023/02/13 05:39:00;;;;;;;1999.90;999.90;;;-1.00;99.90;;;;;;5031634;28;21054;-69
2023/02/13 05:41:27;;;;;;;1999.90;999.90;;;-1.00;99.90;;;;;;5031094;28;21010;-69
2023/02/13 05:43:54;;;;;;;1999.90;999.90;;;-1.00;99.90;;;;;;5030232;28;20441;-69
2023/02/13 05:46:21;;;;;;;1999.90;999.90;;;-1.00;99.90;;;;;;5031215;28;20488;-68
2023/02/13 05:48:49;;;;;;;1999.90;999.90;;;-1.00;99.90;;;;;;5030853;28;20444;-70
2023/02/13 05:51:16;;;;;;;1999.90;999.90;;;-1.00;99.90;;;;;;5031010;28;20512;-66
2023/02/13 05:53:42;;;;;;;1999.90;999.90;;;-1.00;99.90;;;;;;5030243;28;20453;-69
2023/02/13 05:56:09;;;;;;;1999.90;999.90;;;-1.10;99.90;;;;;;5031810;28;20449;-70
2023/02/13 05:58:36;;;;;;;1999.90;999.90;;;-1.00;99.90;;;;;;5036034;28;20466;-70
2023/02/13 06:01:03;;;;;;;1999.90;999.90;;;-1.00;99.90;;;;;;5037715;28;20465;-69
2023/02/13 06:03:31;;;;;;;1999.90;999.90;;;-0.90;99.90;;;;;;5027998;28;20496;-69
2023/02/13 06:06:00;;;;;;;1999.90;999.90;;;-0.90;99.90;;;;;;5029564;28;20476;-68
2023/02/13 06:08:27;;;;;;;1999.90;999.90;;;-1.00;99.90;;;;;;5031087;28;20453;-70
2023/02/13 06:10:54;;;;;;;1999.90;999.90;;;-0.90;99.90;;;;;;5024391;28;20500;-70
2023/02/13 06:13:21;;;;;;;1999.90;999.90;;;-1.00;99.90;;;;;;5029678;28;20468;-69
2023/02/13 06:15:49;;;;;;;1999.90;999.90;;;-1.00;99.90;;;;;;5030844;28;20464;-68
2023/02/13 06:18:16;;;;;;;1999.90;999.90;;;-1.00;99.90;;;;;;5029979;28;20456;-69
2023/02/13 06:20:43;;;;;;;1999.90;999.90;;;-0.90;99.90;;;;;;5030628;28;20461;-68
2023/02/13 06:23:11;;;;;;;1999.90;999.90;;;-1.00;99.90;;;;;;5025143;28;20472;-69
2023/02/13 06:25:38;;;;;;;1999.90;999.90;;;-1.10;99.90;;;;;;5030123;28;20476;-67
2023/02/13 06:28:06;;;;;;;1999.90;999.90;;;-1.10;99.90;;;;;;5030887;28;20449;-68
2023/02/13 06:30:33;;;;;;;1999.90;999.90;;;-1.10;99.90;;;;;;5030490;28;20860;-69
2023/02/13 06:33:00;;;;;;;1999.90;999.90;;;-1.20;99.90;;;;;;5029258;28;20447;-71
2023/02/13 06:35:28;;;;;;;1999.90;999.90;;;-1.10;99.90;;;;;;5030470;28;20456;-66
2023/02/13 06:37:54;;;;;;;1999.90;999.90;;;-1.10;99.90;;;;;;5030821;28;20445;-70
2023/02/13 06:40:22;;;;;;;1999.90;999.90;;;-1.10;99.90;;;;;;5030499;28;20965;-68
2023/02/13 06:42:49;;;;;;;1999.90;999.90;;;-0.90;99.90;;;;;;5029507;28;20485;-69
2023/02/13 06:45:16;;;;;;;1999.90;999.90;;;-1.00;99.90;;;;;;5030662;28;20829;-69
2023/02/13 06:47:44;;;;;;;1999.90;999.90;;;-1.10;99.90;;;;;;5049043;28;20444;-70
2023/02/13 06:50:12;;;;;;;1999.90;999.90;;;-1.00;99.90;;;;;;5050412;28;20506;-69
2023/02/13 06:52:39;;;;;;;1999.90;999.90;;;-1.00;99.90;;;;;;5049121;28;20464;-69
2023/02/13 06:55:06;;;;;;;1999.90;999.90;;;-1.00;99.90;;;;;;5050379;28;20448;-68
2023/02/13 06:57:34;;;;;;;1999.90;999.90;;;-1.00;99.90;;;;;;5045872;28;20459;-67
2023/02/13 07:00:04;;;;;;;1999.90;999.90;;;-0.90;99.90;;;;;;5030126;28;20852;-70
2023/02/13 07:02:31;;;;;;;1999.90;999.90;;;-0.80;99.90;;;;;;5029127;28;20507;-70
2023/02/13 07:05:02;;;;;;;1999.90;999.90;;;-0.80;99.90;;;;;;5030184;28;20444;-68
2023/02/13 07:07:33;;;;;;;1999.90;999.90;;;-0.80;99.90;;;;;;5030246;28;20440;-69
2023/02/13 07:10:00;;;;;;;1999.90;999.90;;;-0.90;99.90;;;;;;5030225;28;20487;-69
2023/02/13 07:12:27;;;;;;;1999.90;999.90;;;-0.70;99.90;;;;;;5028943;28;20467;-69
2023/02/13 07:14:55;;;;;;;1999.90;999.90;;;-0.60;99.90;;;;;;5030234;28;20452;-70
2023/02/13 07:17:21;;;;;;;1999.90;999.90;;;-0.60;99.90;;;;;;5030564;28;20460;-70
2023/02/13 07:19:48;;;;;;;1999.90;999.90;;;-0.60;99.90;;;;;;5029934;28;20449;-67
2023/02/13 07:22:15;;;;;;;1999.90;999.90;;;-0.50;99.90;;;;;;5029327;28;20465;-68
2023/02/13 07:24:42;;;;;;;1999.90;999.90;;;-0.50;99.90;;;;;;5028916;28;20955;-70
2023/02/13 07:27:08;;;;;;;1999.90;999.90;;;-0.40;99.90;;;;;;5029853;28;20449;-68
2023/02/13 07:29:35;;;;;;;1999.90;999.90;;;-0.40;99.90;;;;;;5030216;28;20455;-68
2023/02/13 07:32:04;;;;;;;1999.90;999.90;;;-0.40;99.90;;;;;;5029539;28;20469;-68
2023/02/13 07:34:30;;;;;;;1999.90;999.90;;;-0.40;99.90;;;;;;5029117;28;20543;-68
2023/02/13 07:36:57;;;;;;;1999.90;999.90;;;-0.30;99.90;;;;;;5029966;28;20459;-69
2023/02/13 07:39:24;;;;;;;1999.90;999.90;;;-0.20;99.90;;;;;;5023111;28;21214;-69
2023/02/13 07:41:51;;;;;;;1999.90;999.90;;;-0.10;99.90;;;;;;5030036;28;20480;-70
2023/02/13 07:44:18;;;;;;;1999.90;999.90;;;0.00;99.90;;;;;;5027194;28;20456;-69
2023/02/13 07:46:44;;;;;;;1999.90;999.90;;;0.10;99.90;;;;;;5028672;28;20445;-69
2023/02/13 07:49:12;;;;;;;1999.90;999.90;;;0.20;99.90;;;;;;5028296;28;20437;-69
2023/02/13 07:51:39;;;;;;;1999.90;999.90;;;0.20;99.90;;;;;;5028343;28;20844;-68
2023/02/13 07:54:06;;;;;;;1999.90;999.90;;;0.30;99.90;;;;;;5026747;28;20495;-69
2023/02/13 07:56:33;;;;;;;1999.90;999.90;;;0.30;99.90;;;;;;5028228;28;21227;-69
2023/02/13 07:59:00;;;;;;;1999.90;999.90;;;0.30;99.90;;;;;;5028241;28;20450;-68
2023/02/13 08:01:27;;;;;;;1999.90;999.90;;;0.30;99.90;;;;;;5027948;28;20658;-69
2023/02/13 08:03:54;;;;;;;1999.90;999.90;;;0.40;99.90;;;;;;5028492;28;20943;-69
2023/02/13 08:06:22;;;;;;;1999.90;999.90;;;0.50;99.90;;;;;;5030576;28;20456;-70
2023/02/13 08:11:52;;;;;;;1999.90;999.90;;;0.70;99.90;;;;;;5029691;28;20445;-70
2023/02/13 08:11:53;;;;;;;1999.90;999.90;;;0.80;99.90;;;;;;5028298;28;21004;-73
2023/02/13 08:14:20;;;;;;;1999.90;999.90;;;0.80;99.90;;;;;;5027795;28;20455;-71
2023/02/13 08:16:47;;;;;;;1999.90;999.90;;;1.00;99.90;;;;;;5028554;28;20543;-71
2023/02/13 08:19:14;;;;;;;1999.90;999.90;;;1.10;99.90;;;;;;5028265;28;20452;-68
2023/02/13 08:21:43;;;;;;;1999.90;999.90;;;1.30;99.90;;;;;;5027925;28;20479;-67
2023/02/13 08:24:10;;;;;;;1999.90;999.90;;;1.50;99.90;;;;;;5027005;28;20449;-69
2023/02/13 08:26:37;;;;;;;1999.90;999.90;;;1.60;99.90;;;;;;5028184;28;20444;-69
2023/02/13 08:29:04;;;;;;;1999.90;999.90;;;1.60;99.90;;;;;;5027341;28;20947;-67
2023/02/13 08:31:34;;;;;;;1999.90;999.90;;;1.70;99.90;;;;;;5027114;28;20489;-67
2023/02/13 08:34:01;;;;;;;1999.90;999.90;;;1.80;99.90;;;;;;5026499;28;20452;-68
2023/02/13 08:36:31;;;;;;;1999.90;999.90;;;1.80;99.90;;;;;;5027723;28;21180;-69
2023/02/13 08:38:59;;;;;;;1999.90;999.90;;;2.10;99.90;;;;;;5027904;28;20471;-67
2023/02/13 08:41:25;;;;;;;1999.90;999.90;;;2.10;99.90;;;;;;5027449;28;20867;-68
2023/02/13 08:43:54;;;;;;;1999.90;999.90;;;2.20;99.90;;;;;;5026097;28;20453;-67
2023/02/13 08:46:21;;;;;;;1999.90;999.90;;;2.30;99.90;;;;;;5029956;28;20840;-67
2023/02/13 08:48:48;;;;;;;1999.90;999.90;;;2.50;99.90;;;;;;5031974;28;20456;-68
2023/02/13 08:51:15;;;;;;;1999.90;999.90;;;2.60;99.90;;;;;;5033024;28;20476;-64
2023/02/13 08:53:42;;;;;;;1999.90;999.90;;;2.90;99.90;;;;;;5030312;28;20437;-67
2023/02/13 08:56:11;;;;;;;1999.90;999.90;;;3.00;99.90;;;;;;5033059;28;20958;-67
2023/02/13 08:58:38;;;;;;;1999.90;999.90;;;3.20;99.90;;;;;;5032560;28;20545;-68
2023/02/13 09:01:06;;;;;;;1999.90;999.90;;;3.30;99.90;;;;;;5032517;28;20474;-68
2023/02/13 09:03:33;;;;;;;1999.90;999.90;;;3.40;99.90;;;;;;5044257;28;20451;-67
2023/02/13 09:06:00;;;;;;;1999.90;999.90;;;3.50;99.90;;;;;;5052140;28;20979;-68
2023/02/13 09:08:27;;;;;;;1999.90;999.90;;;3.80;99.90;;;;;;5051239;28;20946;-69
2023/02/13 09:11:00;;;;;;;1999.90;999.90;;;3.90;99.90;;;;;;5051488;28;20483;-68
2023/02/13 09:13:28;;;;;;;1999.90;999.90;;;4.20;99.90;;;;;;5051111;28;20452;-67
2023/02/13 09:15:58;;;;;;;1999.90;999.90;;;4.50;99.90;;;;;;5052522;28;20443;-68
2023/02/13 09:18:25;;;;;;;1999.90;999.90;;;4.90;99.90;;;;;;5051191;28;20444;-69
2023/02/13 09:20:58;;;;;;;1999.90;999.90;;;5.30;99.90;;;;;;5032161;28;20465;-67
2023/02/13 09:23:25;;;;;;;1999.90;999.90;;;5.60;99.90;;;;;;5030981;28;20448;-67
2023/02/13 09:25:51;;;;;;;1999.90;999.90;;;5.90;99.90;;;;;;5031864;28;20453;-69
2023/02/13 09:28:18;;;;;;;1999.90;999.90;;;6.20;99.90;;;;;;5032050;28;20456;-68
2023/02/13 09:30:49;;;;;;;1999.90;999.90;;;6.60;99.90;;;;;;5031817;28;20488;-69
2023/02/13 09:33:19;;;;;;;1999.90;999.90;;;6.90;99.90;;;;;;5030851;28;20441;-68
2023/02/13 09:35:45;;;;;;;1999.90;999.90;;;7.10;99.90;;;;;;5031964;28;20585;-70
2023/02/13 09:38:12;;;;;;;1999.90;999.90;;;7.20;99.90;;;;;;5031799;28;20951;-68
2023/02/13 09:40:51;;;;;;;1999.90;999.90;;;7.30;99.90;;;;;;5031766;28;20472;-67
2023/02/13 09:43:30;;;;;;;1999.90;999.90;;;7.40;99.90;;;;;;5030558;28;20444;-68
2023/02/13 09:46:17;;;;;;;1999.90;999.90;;;7.80;99.90;;;;;;5031656;28;20453;-68
2023/02/13 09:48:49;;;;;;;1999.90;999.90;;;8.10;99.90;;;;;;5031854;28;20453;-69
2023/02/13 09:51:19;;;;;;;1999.90;999.90;;;8.40;99.90;;;;;;5031941;28;20499;-68
2023/02/13 09:53:53;;;;;;;1999.90;999.90;;;8.60;99.90;;;;;;5030663;28;20452;-69
2023/02/13 09:56:29;;;;;;;1999.90;999.90;;;9.10;99.90;;;;;;5031516;28;20526;-69
2023/02/13 09:59:02;;;;;;;1999.90;999.90;;;9.40;99.90;;;;;;5030872;28;20453;-68
2023/02/13 10:01:33;;;;;;;1999.90;999.90;;;9.80;99.90;;;;;;5031304;28;20464;-69
2023/02/13 10:04:17;;;;;;;1999.90;999.90;;;9.90;99.90;;;;;;5037898;28;20479;-68
2023/02/13 10:06:49;;;;;;;1999.90;999.90;;;10.30;99.90;;;;;;5051160;28;20458;-67
2023/02/13 10:09:25;;;;;;;1999.90;999.90;;;10.60;99.90;;;;;;5051213;28;20551;-70
2023/02/13 10:12:21;;;;;;;1999.90;999.90;;;10.60;99.90;;;;;;5051023;28;20487;-68
2023/02/13 10:15:00;;;;;;;1999.90;999.90;;;10.90;99.90;;;;;;5010631;28;20446;-69
2023/02/13 10:17:34;;;;;;;1999.90;999.90;;;11.20;99.90;;;;;;5011273;28;20561;-68
2023/02/13 10:20:04;;;;;;;1999.90;999.90;;;11.50;99.90;;;;;;5011000;28;20461;-70
2023/02/13 10:22:36;;;;;;;1999.90;999.90;;;11.50;99.90;;;;;;5010241;28;20466;-68
2023/02/13 10:25:07;;;;;;;1999.90;999.90;;;11.70;99.90;;;;;;5010950;28;20461;-69
2023/02/13 10:27:38;;;;;;;1999.90;999.90;;;11.90;99.90;;;;;;5010976;28;20445;-68
2023/02/13 10:30:11;;;;;;;1999.90;999.90;;;12.10;99.90;;;;;;5022633;28;20445;-68
2023/02/13 10:35:40;;;;;;;1999.90;999.90;;;12.30;99.90;;;;;;5030228;28;20447;-68
2023/02/13 10:38:16;;;;;;;1999.90;999.90;;;12.60;99.90;;;;;;5030554;28;20939;-68
2023/02/13 10:41:02;;;;;;;1999.90;999.90;;;13.00;99.90;;;;;;5030329;28;20464;-68
2023/02/13 10:43:38;;;;;;;1999.90;999.90;;;13.30;99.90;;;;;;5029324;28;20448;-68
2023/02/13 10:46:14;;;;;;;1999.90;999.90;;;13.70;99.90;;;;;;5029650;28;20444;-67
2023/02/13 10:49:01;;;;;;;1999.90;999.90;;;13.70;99.90;;;;;;5030152;28;20460;-68
2023/02/13 10:51:34;;;;;;;1999.90;999.90;;;13.80;99.90;;;;;;5030097;28;20497;-70
2023/02/13 10:54:21;;;;;;;1999.90;999.90;;;13.90;99.90;;;;;;5029090;28;20487;-70
2023/02/13 10:56:57;;;;;;;1999.90;999.90;;;14.20;99.90;;;;;;5030092;28;20449;-68
2023/02/13 10:59:38;;;;;;;1999.90;999.90;;;14.30;99.20;;;;;;5029893;28;20973;-68
2023/02/13 11:02:23;;;;;;;1999.90;999.90;;;14.30;99.20;;;;;;5029708;28;21020;-70
2023/02/13 11:04:53;;;;;;;1999.90;999.90;;;14.70;99.00;;;;;;5010501;28;20464;-69
2023/02/13 11:07:24;;;;;;;1999.90;999.90;;;15.10;97.20;;;;;;5010687;28;20468;-71
2023/02/13 11:09:55;;;;;;;1999.90;999.90;;;15.20;97.30;;;;;;5009961;28;20450;-68
2023/02/13 11:12:28;;;;;;;1999.90;999.90;;;15.30;96.90;;;;;;5009685;28;20489;-71
2023/02/13 11:14:56;;;;;;;1999.90;999.90;;;15.30;96.50;;;;;;5010310;28;20544;-69
2023/02/13 11:17:25;;;;;;;1999.90;999.90;;;15.60;95.60;;;;;;5010121;28;20449;-69
2023/02/13 11:19:55;;;;;;;1999.90;999.90;;;15.90;96.00;;;;;;5023665;28;20440;-67
2023/02/13 11:22:33;;;;;;;1999.90;999.90;;;16.10;95.10;;;;;;5048752;28;20467;-68
2023/02/13 11:25:04;;;;;;;1999.90;999.90;;;15.60;94.10;;;;;;5049370;28;20985;-70
2023/02/13 11:27:34;;;;;;;1999.90;999.90;;;15.50;95.20;;;;;;5049553;28;20467;-69
2023/02/13 11:30:04;;;;;;;1999.90;999.90;;;15.70;95.20;;;;;;5049215;28;20452;-69
2023/02/13 11:32:33;;;;;;;1999.90;999.90;;;15.90;95.20;;;;;;5048304;28;20860;-69
2023/02/13 11:35:27;;;;;;;1999.90;999.90;;;15.70;94.90;;;;;;5049082;28;20452;-66
2023/02/13 11:38:13;;;;;;;1999.90;999.90;;;15.70;94.90;;;;;;5047683;28;20855;-68
2023/02/13 11:40:41;;;;;;;1999.90;999.90;;;15.50;94.50;;;;;;5049851;28;20476;-69
2023/02/13 11:43:08;;;;;;;1999.90;999.90;;;15.20;95.30;;;;;;5048692;28;20810;-68
2023/02/13 11:45:35;;;;;;;1999.90;999.90;;;15.20;95.50;;;;;;5048841;28;20457;-67
2023/02/13 11:48:09;;;;;;;1999.90;999.90;;;15.20;95.40;;;;;;5049162;28;20448;-67
2023/02/13 11:50:38;;;;;;;1999.90;999.90;;;15.30;95.60;;;;;;5044220;28;20526;-68
2023/02/13 11:53:08;;;;;;;1999.90;999.90;;;15.90;95.10;;;;;;5027797;28;20477;-67
2023/02/13 11:55:37;;;;;;;1999.90;999.90;;;16.40;94.70;;;;;;5029125;28;20955;-68
2023/02/13 11:58:23;;;;;;;1999.90;999.90;;;17.10;93.00;;;;;;5030202;28;20453;-69
2023/02/13 12:00:50;;;;;;;1999.90;999.90;;;17.00;92.70;;;;;;5048829;28;20474;-69
2023/02/13 12:03:27;;;;;;;1999.90;999.90;;;16.60;92.80;;;;;;5047385;28;20883;-67
2023/02/13 12:06:04;;;;;;;1999.90;999.90;;;15.50;93.40;;;;;;5048474;28;20454;-68
2023/02/13 12:08:33;;;;;;;1999.90;999.90;;;13.80;95.60;;;;;;5048610;28;20447;-69
2023/02/13 12:11:02;;;;;;;1999.90;999.90;;;13.00;98.10;;;;;;5048630;28;20472;-67
2023/02/13 12:13:33;;;;;;;1999.90;999.90;;;12.40;98.70;;;;;;5036515;28;20828;-68
2023/02/13 12:16:03;;;;;;;1999.90;999.90;;;12.00;99.90;;;;;;5029076;28;20437;-67
2023/02/13 12:18:35;;;;;;;1999.90;999.90;;;11.70;99.90;;;;;;5029481;28;20440;-68
2023/02/13 12:21:14;;;;;;;1999.90;999.90;;;11.40;99.90;;;;;;5029526;28;20472;-69
2023/02/13 12:23:48;;;;;;;1999.90;999.90;;;11.20;99.90;;;;;;5031889;28;20445;-68
2023/02/13 12:26:26;;;;;;;1999.90;999.90;;;11.10;99.90;;;;;;5033016;28;20444;-68
2023/02/13 12:29:21;;;;;;;1999.90;999.90;;;10.90;99.90;;;;;;5034090;28;21024;-67
2023/02/13 12:32:02;;;;;;;1999.90;999.90;;;10.80;99.90;;;;;;5032842;28;20503;-68
2023/02/13 12:34:55;;;;;;;1999.90;999.90;;;10.60;99.90;;;;;;5032117;28;20457;-67
2023/02/13 12:37:50;;;;;;;1999.90;999.90;;;10.60;99.90;;;;;;5032803;28;20440;-67
2023/02/13 12:40:38;;;;;;;1999.90;999.90;;;10.50;99.90;;;;;;5033181;28;20994;-67
2023/02/13 12:43:32;;;;;;;1999.90;999.90;;;10.50;99.90;;;;;;5031759;28;20448;-66
2023/02/13 12:46:06;;;;;;;1999.90;999.90;;;10.50;99.90;;;;;;5032596;28;20448;-67
2023/02/13 12:48:40;;;;;;;1999.90;999.90;;;10.50;99.90;;;;;;5032433;28;20441;-68
2023/02/13 12:51:23;;;;;;;1999.90;999.90;;;10.50;99.90;;;;;;5032676;28;20471;-68
2023/02/13 12:54:07;;;;;;;1999.90;999.90;;;10.50;99.90;;;;;;5031590;28;20441;-68
2023/02/13 12:56:46;;;;;;;1999.90;999.90;;;10.60;99.90;;;;;;5032534;28;20449;-67
2023/02/13 12:59:19;;;;;;;1999.90;999.90;;;10.50;99.90;;;;;;5032692;28;20455;-69
2023/02/13 13:02:19;;;;;;;1999.90;999.90;;;10.60;99.90;;;;;;5033482;28;20465;-68
2023/02/13 13:05:00;;;;;;;1999.90;999.90;;;10.60;99.90;;;;;;5052315;28;21078;-67